Time;durP1;ratioP1;P1;durP2;ratioP2;P2;SDS_P1;SDS_P2;PMS_P1;PMS_P2;Temp;Humidity;BMP_temperature;BMP_pressure;BME280_temperature;BME280_humidity;BME280_pressure;Samples;Min_cycle;Max_cycle;Signal;HPM_P1;HPM_P2
2021/10/16 00:01:28;;;;;;;2.50;1.10;;;13.80;83.50;;;;;;5020089;28;20037;-71
2021/10/16 00:03:54;;;;;;;4.65;1.00;;;13.70;83.40;;;;;;5023880;28;20048;-71
2021/10/16 00:06:20;;;;;;;2.50;0.90;;;13.70;83.20;;;;;;5026201;28;20046;-71
2021/10/16 00:08:46;;;;;;;3.67;0.98;;;13.70;83.10;;;;;;5033125;28;20451;-71
2021/10/16 00:11:13;;;;;;;3.85;1.23;;;13.70;83.10;;;;;;5022380;28;20029;-71
2021/10/16 00:13:39;;;;;;;3.53;1.33;;;13.70;83.20;;;;;;5027887;28;20382;-71
2021/10/16 00:16:05;;;;;;;2.95;1.05;;;13.70;83.20;;;;;;5018322;28;20053;-71
2021/10/16 00:18:32;;;;;;;4.50;1.15;;;13.70;83.30;;;;;;5031092;28;20022;-71
2021/10/16 00:20:59;;;;;;;11.95;1.27;;;13.70;83.30;;;;;;5020223;28;20034;-71
2021/10/16 00:23:25;;;;;;;5.57;1.65;;;13.70;83.30;;;;;;5031063;28;20074;-71
2021/10/16 00:25:51;;;;;;;0.47;0.47;;;13.60;83.30;;;;;;5027301;28;20441;-71
2021/10/16 00:28:17;;;;;;;4.35;0.90;;;13.60;83.20;;;;;;5032737;28;20025;-71
2021/10/16 00:30:43;;;;;;;3.88;1.13;;;13.60;83.10;;;;;;5029148;28;20096;-71
2021/10/16 00:33:09;;;;;;;4.18;1.25;;;13.50;83.10;;;;;;5024794;28;20017;-71
2021/10/16 00:35:35;;;;;;;5.10;1.60;;;13.50;83.20;;;;;;5031138;28;20393;-71
2021/10/16 00:38:00;;;;;;;3.70;0.98;;;13.50;83.10;;;;;;5030974;28;20044;-71
2021/10/16 00:40:26;;;;;;;1.27;0.68;;;13.50;83.20;;;;;;5015594;28;20489;-71
2021/10/16 00:42:54;;;;;;;5.50;1.00;;;13.40;83.20;;;;;;5021055;28;20029;-71
2021/10/16 00:45:21;;;;;;;2.72;1.20;;;13.40;83.30;;;;;;5023533;28;20500;-71
2021/10/16 00:47:47;;;;;;;0.60;0.60;;;13.40;83.20;;;;;;5016054;28;20080;-71
2021/10/16 00:50:15;;;;;;;8.30;1.42;;;13.30;83.10;;;;;;5029836;28;20396;-71
2021/10/16 00:52:41;;;;;;;2.75;1.00;;;13.30;83.10;;;;;;5022701;28;20033;-71
2021/10/16 00:55:12;;;;;;;6.80;1.27;;;13.30;83.10;;;;;;5029775;28;20038;-71
2021/10/16 00:57:38;;;;;;;5.97;1.58;;;13.20;83.10;;;;;;5028719;28;20087;-71
2021/10/16 01:00:06;;;;;;;2.88;1.17;;;13.20;83.20;;;;;;5029774;28;20038;-71
2021/10/16 01:02:32;;;;;;;2.25;1.17;;;13.20;83.30;;;;;;5030504;28;20052;-71
2021/10/16 01:04:58;;;;;;;8.30;1.55;;;13.20;83.30;;;;;;5031318;28;20021;-71
2021/10/16 01:07:25;;;;;;;3.33;1.13;;;13.10;83.10;;;;;;5030029;28;20526;-71
2021/10/16 01:09:50;;;;;;;2.88;1.20;;;13.10;83.10;;;;;;5031121;28;20083;-71
2021/10/16 01:12:16;;;;;;;3.05;0.85;;;13.10;83.10;;;;;;5026223;28;20014;-71
2021/10/16 01:14:49;;;;;;;5.88;1.40;;;13.00;83.20;;;;;;5018645;28;20477;-71
2021/10/16 01:17:17;;;;;;;3.13;0.77;;;13.10;83.30;;;;;;5028460;28;20050;-71
2021/10/16 01:19:45;;;;;;;3.50;1.27;;;13.00;83.20;;;;;;5021446;28;20112;-71
2021/10/16 01:22:12;;;;;;;7.80;1.77;;;13.00;83.20;;;;;;5021902;28;20061;-71
2021/10/16 01:24:39;;;;;;;3.08;1.25;;;12.90;83.20;;;;;;5029859;28;20083;-72
2021/10/16 01:27:05;;;;;;;6.18;1.60;;;12.90;83.20;;;;;;5017838;28;20034;-72
2021/10/16 01:29:31;;;;;;;7.10;1.80;;;12.90;83.20;;;;;;5028589;28;20032;-71
2021/10/16 01:32:02;;;;;;;6.47;1.52;;;12.90;83.20;;;;;;5029874;28;20036;-71
2021/10/16 01:34:29;;;;;;;10.20;1.50;;;12.80;83.30;;;;;;5025376;28;20090;-71
2021/10/16 01:36:54;;;;;;;4.03;1.52;;;12.80;83.30;;;;;;5029423;28;20087;-71
2021/10/16 01:39:24;;;;;;;9.52;1.77;;;12.80;83.40;;;;;;5011597;28;20087;-71
2021/10/16 01:41:51;;;;;;;5.85;1.95;;;12.80;83.40;;;;;;5021547;28;20037;-71
2021/10/16 01:44:17;;;;;;;9.00;1.70;;;12.80;83.40;;;;;;5024053;28;20022;-72
2021/10/16 01:46:50;;;;;;;1.38;1.20;;;12.80;83.40;;;;;;5012463;28;20026;-71
2021/10/16 01:49:20;;;;;;;9.88;1.60;;;12.80;83.30;;;;;;5023328;28;20032;-71
2021/10/16 01:51:49;;;;;;;5.65;1.80;;;12.80;83.30;;;;;;5023536;28;20037;-71
2021/10/16 01:54:16;;;;;;;6.50;1.60;;;12.70;83.20;;;;;;5025878;28;20104;-71
2021/10/16 01:56:52;;;;;;;15.63;2.00;;;12.70;83.30;;;;;;5032136;28;20044;-71
2021/10/16 01:59:27;;;;;;;5.88;1.40;;;12.70;83.40;;;;;;5020346;28;20021;-71
2021/10/16 02:02:11;;;;;;;7.90;1.50;;;12.70;83.40;;;;;;5030328;28;20524;-71
2021/10/16 02:04:45;;;;;;;8.68;1.80;;;12.70;83.20;;;;;;5031004;28;20116;-71
2021/10/16 02:07:10;;;;;;;5.05;1.45;;;12.70;83.30;;;;;;5027412;28;20520;-71
2021/10/16 02:09:36;;;;;;;6.65;1.77;;;12.60;83.40;;;;;;5026374;28;20025;-71
2021/10/16 02:12:02;;;;;;;5.30;1.63;;;12.60;83.40;;;;;;5031863;28;20061;-71
2021/10/16 02:14:34;;;;;;;8.90;1.73;;;12.60;83.40;;;;;;5032380;28;20017;-71
2021/10/16 02:17:04;;;;;;;7.20;1.67;;;12.60;83.40;;;;;;5025702;28;20041;-71
2021/10/16 02:19:30;;;;;;;4.32;1.20;;;12.60;83.40;;;;;;5027335;28;20018;-71
2021/10/16 02:21:57;;;;;;;4.50;1.70;;;12.60;83.50;;;;;;5031600;28;20034;-71
2021/10/16 02:24:25;;;;;;;3.47;1.30;;;12.60;83.40;;;;;;5027782;28;20044;-71
2021/10/16 02:26:51;;;;;;;3.72;1.38;;;12.60;83.40;;;;;;5030706;28;20481;-71
2021/10/16 02:29:20;;;;;;;2.30;1.38;;;12.60;83.40;;;;;;5028228;28;20083;-71
2021/10/16 02:31:53;;;;;;;3.45;1.10;;;12.60;83.50;;;;;;5032824;28;20055;-71
2021/10/16 02:34:19;;;;;;;5.57;1.27;;;12.60;83.40;;;;;;5024916;28;20026;-71
2021/10/16 02:36:50;;;;;;;4.53;1.30;;;12.60;83.40;;;;;;5025462;28;20501;-71
2021/10/16 02:39:16;;;;;;;6.35;1.92;;;12.60;83.40;;;;;;5025173;28;20034;-71
2021/10/16 02:41:41;;;;;;;3.95;1.20;;;12.60;83.40;;;;;;5032350;28;20029;-71
2021/10/16 02:44:07;;;;;;;17.20;1.35;;;12.50;83.30;;;;;;5026534;28;20033;-71
2021/10/16 02:46:38;;;;;;;6.13;1.48;;;12.50;83.20;;;;;;5026327;28;20029;-71
2021/10/16 02:49:04;;;;;;;5.07;1.40;;;12.50;83.20;;;;;;5026543;28;20021;-72
2021/10/16 02:51:30;;;;;;;9.95;1.20;;;12.40;83.20;;;;;;5030130;28;20052;-71
2021/10/16 02:53:55;;;;;;;6.70;1.05;;;12.40;83.00;;;;;;5041883;28;20064;-71
2021/10/16 02:56:21;;;;;;;8.90;1.42;;;12.40;83.00;;;;;;5022247;28;20053;-71
2021/10/16 02:58:47;;;;;;;8.98;1.63;;;12.40;83.10;;;;;;5031541;28;20049;-71
2021/10/16 03:01:14;;;;;;;4.90;1.30;;;12.40;83.20;;;;;;5031819;28;20060;-71
2021/10/16 03:03:39;;;;;;;4.43;1.38;;;12.30;83.30;;;;;;5021712;28;20060;-71
2021/10/16 03:06:06;;;;;;;7.28;1.35;;;12.30;83.40;;;;;;5031694;28;20037;-71
2021/10/16 03:08:34;;;;;;;5.53;1.08;;;12.30;83.40;;;;;;5024203;28;20025;-71
2021/10/16 03:11:00;;;;;;;7.88;1.00;;;12.30;83.60;;;;;;5024559;28;20072;-71
2021/10/16 03:13:35;;;;;;;3.05;0.80;;;12.30;83.50;;;;;;5030022;28;20026;-71
2021/10/16 03:16:04;;;;;;;6.32;0.85;;;12.20;83.30;;;;;;5026003;28;20030;-71
2021/10/16 03:18:29;;;;;;;1.52;0.93;;;12.30;83.40;;;;;;5019525;28;20117;-71
2021/10/16 03:20:57;;;;;;;9.90;1.10;;;12.30;83.60;;;;;;5023797;28;20027;-71
2021/10/16 03:23:24;;;;;;;8.05;1.33;;;12.20;83.70;;;;;;5032707;28;20048;-71
2021/10/16 03:25:50;;;;;;;3.53;0.98;;;12.20;83.90;;;;;;5032046;28;20385;-71
2021/10/16 03:28:17;;;;;;;4.68;1.30;;;12.20;84.00;;;;;;5031264;28;20013;-71
2021/10/16 03:30:43;;;;;;;3.75;0.82;;;12.10;84.00;;;;;;5021638;28;20038;-71
2021/10/16 03:33:08;;;;;;;2.00;0.60;;;12.10;84.60;;;;;;5043467;28;20044;-71
2021/10/16 03:35:35;;;;;;;7.18;1.45;;;12.10;84.00;;;;;;5023025;28;20496;-71
2021/10/16 03:38:01;;;;;;;3.67;0.75;;;12.10;84.10;;;;;;5026885;28;20032;-71
2021/10/16 03:40:26;;;;;;;5.07;1.40;;;12.10;84.10;;;;;;5023608;28;20408;-71
2021/10/16 03:42:52;;;;;;;2.80;1.05;;;12.10;84.30;;;;;;5030232;28;20112;-72
2021/10/16 03:45:23;;;;;;;0.85;0.75;;;12.10;84.40;;;;;;5025955;28;20025;-71
2021/10/16 03:47:49;;;;;;;5.22;1.02;;;12.10;84.30;;;;;;5023169;28;20029;-71
2021/10/16 03:50:15;;;;;;;5.82;1.00;;;12.10;84.50;;;;;;5021234;28;20084;-70
2021/10/16 03:52:41;;;;;;;3.50;1.38;;;12.10;84.50;;;;;;5021899;28;20030;-71
2021/10/16 03:55:07;;;;;;;3.72;1.00;;;12.10;84.60;;;;;;5024723;28;20048;-71
2021/10/16 03:57:33;;;;;;;5.82;1.15;;;12.10;84.50;;;;;;5026833;28;20065;-70
2021/10/16 03:59:59;;;;;;;3.80;0.98;;;12.10;84.60;;;;;;5013825;28;20053;-70
2021/10/16 04:02:26;;;;;;;4.53;1.30;;;12.10;84.60;;;;;;5026360;28;20041;-71
2021/10/16 04:04:53;;;;;;;6.47;1.58;;;12.10;84.70;;;;;;5023727;28;20030;-71
2021/10/16 04:07:19;;;;;;;4.75;1.05;;;12.10;84.70;;;;;;5025166;28;20033;-71
2021/10/16 04:09:50;;;;;;;5.95;1.17;;;12.10;84.70;;;;;;5025199;28;20432;-71
2021/10/16 04:12:15;;;;;;;8.95;1.60;;;12.10;84.70;;;;;;5022974;28;20025;-71
2021/10/16 04:14:41;;;;;;;4.65;1.40;;;12.20;84.90;;;;;;5028881;28;20065;-71
2021/10/16 04:17:07;;;;;;;5.53;1.17;;;12.10;84.90;;;;;;5030381;28;20037;-71
2021/10/16 04:19:33;;;;;;;6.25;1.48;;;12.20;84.80;;;;;;5027484;28;20042;-71
2021/10/16 04:21:59;;;;;;;4.95;0.80;;;12.20;84.80;;;;;;5026650;28;20057;-71
2021/10/16 04:24:25;;;;;;;8.63;1.60;;;12.20;84.70;;;;;;5011290;28;20058;-71
2021/10/16 04:26:51;;;;;;;4.53;1.23;;;12.20;84.70;;;;;;5040681;28;20038;-71
2021/10/16 04:29:24;;;;;;;2.85;1.42;;;12.20;84.60;;;;;;5037593;28;20511;-71
2021/10/16 04:32:08;;;;;;;5.72;1.05;;;12.20;84.70;;;;;;5026847;28;20061;-70
2021/10/16 04:34:34;;;;;;;5.68;1.40;;;12.20;84.70;;;;;;5019707;28;20018;-74
2021/10/16 04:37:00;;;;;;;5.88;1.92;;;12.20;84.70;;;;;;5027773;28;20038;-71
2021/10/16 04:39:29;;;;;;;10.52;1.42;;;12.20;84.70;;;;;;5028535;28;20425;-71
2021/10/16 04:41:55;;;;;;;5.15;1.40;;;12.20;84.70;;;;;;5028359;28;20038;-71
2021/10/16 04:44:21;;;;;;;5.55;1.45;;;12.20;84.70;;;;;;5022737;28;20034;-71
2021/10/16 04:46:48;;;;;;;3.40;1.10;;;12.30;84.70;;;;;;5016324;28;20504;-71
2021/10/16 04:49:14;;;;;;;7.13;1.50;;;12.20;84.50;;;;;;5016264;28;20026;-71
2021/10/16 04:51:42;;;;;;;6.63;1.23;;;12.30;84.60;;;;;;5029102;28;20048;-71
2021/10/16 04:54:11;;;;;;;4.45;1.05;;;12.30;84.60;;;;;;5023647;28;20117;-71
2021/10/16 04:56:37;;;;;;;7.88;1.33;;;12.30;84.60;;;;;;5031193;28;20461;-71
2021/10/16 04:59:04;;;;;;;10.85;1.45;;;12.30;84.60;;;;;;5023615;28;20032;-71
2021/10/16 05:01:31;;;;;;;8.43;1.77;;;12.30;84.70;;;;;;5028198;28;20040;-72
2021/10/16 05:03:56;;;;;;;4.32;1.50;;;12.30;84.60;;;;;;5022158;28;20021;-72
2021/10/16 05:06:22;;;;;;;4.45;1.30;;;12.30;84.60;;;;;;5026617;28;20078;-72
2021/10/16 05:08:50;;;;;;;6.07;1.63;;;12.30;84.60;;;;;;5020003;28;20030;-72
2021/10/16 05:11:16;;;;;;;5.95;1.55;;;12.30;84.60;;;;;;5024661;28;20021;-72
2021/10/16 05:13:41;;;;;;;6.47;1.30;;;12.30;84.70;;;;;;5018255;28;21506;-72
2021/10/16 05:16:07;;;;;;;11.00;1.80;;;12.30;84.70;;;;;;5017019;28;20033;-72
2021/10/16 05:18:34;;;;;;;6.50;1.50;;;12.30;84.70;;;;;;5023297;28;20031;-72
2021/10/16 05:21:00;;;;;;;8.70;1.70;;;12.30;84.70;;;;;;5025956;28;20013;-72
2021/10/16 05:23:27;;;;;;;12.50;1.50;;;12.40;84.70;;;;;;5017187;28;20021;-72
2021/10/16 05:25:54;;;;;;;8.00;1.70;;;12.40;84.70;;;;;;5019857;28;20527;-72
2021/10/16 05:28:21;;;;;;;9.20;1.67;;;12.40;84.60;;;;;;5028752;28;20068;-72
2021/10/16 05:30:50;;;;;;;7.78;1.20;;;12.40;84.50;;;;;;5024499;28;20084;-72
2021/10/16 05:33:17;;;;;;;9.63;1.58;;;12.40;84.40;;;;;;5024095;28;20428;-72
2021/10/16 05:35:44;;;;;;;4.13;1.23;;;12.30;84.30;;;;;;5019828;28;20072;-72
2021/10/16 05:38:17;;;;;;;4.18;1.30;;;12.40;84.30;;;;;;5022276;28;20045;-72
2021/10/16 05:40:42;;;;;;;4.30;1.17;;;12.40;84.30;;;;;;5017796;28;20132;-72
2021/10/16 05:43:08;;;;;;;7.45;1.60;;;12.30;84.30;;;;;;5025297;28;20037;-72
2021/10/16 05:45:36;;;;;;;6.93;2.17;;;12.30;84.30;;;;;;5015804;28;20025;-72
2021/10/16 05:48:01;;;;;;;7.88;1.58;;;12.30;84.40;;;;;;5029918;28;20037;-72
2021/10/16 05:50:30;;;;;;;4.43;1.63;;;12.30;84.50;;;;;;5023705;28;20038;-72
2021/10/16 05:52:57;;;;;;;4.53;1.55;;;12.30;84.50;;;;;;5024952;28;20034;-72
2021/10/16 05:55:24;;;;;;;4.30;1.40;;;12.30;85.20;;;;;;5014612;28;20371;-72
2021/10/16 05:57:50;;;;;;;2.33;1.05;;;12.30;84.60;;;;;;5035932;28;20469;-72
2021/10/16 06:00:16;;;;;;;4.55;0.95;;;12.30;84.60;;;;;;5017133;28;20041;-72
2021/10/16 06:02:49;;;;;;;5.53;1.40;;;12.30;84.60;;;;;;5022350;28;20037;-73
2021/10/16 06:05:22;;;;;;;5.97;1.40;;;12.30;84.50;;;;;;5023948;28;20568;-73
2021/10/16 06:07:48;;;;;;;5.47;1.70;;;12.30;84.60;;;;;;5022475;28;20120;-71
2021/10/16 06:10:13;;;;;;;3.78;1.25;;;12.30;84.60;;;;;;5014541;28;20105;-71
2021/10/16 06:12:41;;;;;;;5.40;1.58;;;12.30;84.60;;;;;;5018539;28;20438;-71
2021/10/16 06:15:08;;;;;;;5.75;1.15;;;12.30;84.50;;;;;;5023225;28;20481;-70
2021/10/16 06:17:34;;;;;;;5.85;1.85;;;12.30;84.50;;;;;;5018823;28;20033;-70
2021/10/16 06:20:00;;;;;;;6.85;1.70;;;12.30;84.50;;;;;;5022878;28;20024;-70
2021/10/16 06:22:26;;;;;;;7.07;1.85;;;12.30;84.50;;;;;;5027099;28;20083;-75
2021/10/16 06:24:52;;;;;;;1.70;1.30;;;12.30;84.40;;;;;;5022965;28;20053;-74
2021/10/16 06:27:20;;;;;;;5.75;1.40;;;12.30;84.40;;;;;;5028754;28;20048;-71
2021/10/16 06:29:46;;;;;;;5.05;1.67;;;12.30;84.50;;;;;;5027149;28;20412;-70
2021/10/16 06:32:13;;;;;;;2.88;1.38;;;12.30;84.50;;;;;;5027979;28;20021;-71
2021/10/16 06:34:41;;;;;;;6.35;1.90;;;12.30;84.60;;;;;;5017578;28;20050;-71
2021/10/16 06:37:07;;;;;;;3.97;1.30;;;12.30;84.60;;;;;;5024136;28;20442;-70
2021/10/16 06:39:33;;;;;;;6.43;1.52;;;12.30;84.60;;;;;;5020175;28;20133;-70
2021/10/16 06:42:00;;;;;;;4.50;1.40;;;12.30;84.60;;;;;;5023799;28;20022;-70
2021/10/16 06:44:26;;;;;;;9.45;1.40;;;12.30;84.70;;;;;;5024974;28;20101;-70
2021/10/16 06:47:05;;;;;;;3.42;1.60;;;12.30;84.70;;;;;;5023096;28;20044;-71
2021/10/16 06:49:33;;;;;;;5.07;1.38;;;12.30;84.70;;;;;;5025617;28;20018;-70
2021/10/16 06:51:59;;;;;;;3.13;1.38;;;12.30;84.60;;;;;;5019406;28;20037;-70
2021/10/16 06:54:25;;;;;;;10.60;1.50;;;12.20;84.70;;;;;;5025998;28;20358;-70
2021/10/16 06:56:51;;;;;;;4.28;1.58;;;12.20;84.80;;;;;;5017824;28;20041;-70
2021/10/16 06:59:18;;;;;;;4.82;1.02;;;12.30;84.80;;;;;;5022228;28;20028;-70
2021/10/16 07:01:46;;;;;;;1.38;0.65;;;12.30;84.90;;;;;;5032162;28;20029;-70
2021/10/16 07:04:14;;;;;;;4.88;1.48;;;12.30;84.80;;;;;;5018273;28;20113;-71
2021/10/16 07:06:40;;;;;;;5.55;1.52;;;12.30;84.90;;;;;;5028907;28;20056;-70
2021/10/16 07:09:11;;;;;;;8.43;1.55;;;12.30;85.00;;;;;;5029609;28;20330;-70
2021/10/16 07:11:37;;;;;;;7.22;1.90;;;12.30;85.00;;;;;;5026410;28;20038;-71
2021/10/16 07:14:03;;;;;;;3.72;1.52;;;12.30;85.00;;;;;;5018636;28;20033;-71
2021/10/16 07:16:28;;;;;;;6.78;1.48;;;12.30;85.10;;;;;;5021649;28;20040;-73
2021/10/16 07:18:57;;;;;;;3.40;1.17;;;12.30;85.00;;;;;;5030491;28;20052;-73
2021/10/16 07:21:23;;;;;;;5.10;1.25;;;12.40;85.10;;;;;;5030295;28;20465;-72
2021/10/16 07:23:48;;;;;;;5.00;1.38;;;12.30;84.90;;;;;;5026849;28;20116;-73
2021/10/16 07:26:15;;;;;;;7.00;2.92;;;12.30;84.90;;;;;;5022570;28;20041;-72
2021/10/16 07:28:40;;;;;;;1.80;1.08;;;12.30;84.90;;;;;;5022656;28;20104;-73
2021/10/16 07:31:06;;;;;;;8.05;1.60;;;12.30;84.90;;;;;;5022855;28;20112;-74
2021/10/16 07:33:32;;;;;;;3.00;1.33;;;12.30;85.00;;;;;;5023082;28;20033;-73
2021/10/16 07:35:57;;;;;;;2.00;1.08;;;12.30;85.10;;;;;;5022633;28;20561;-73
2021/10/16 07:38:23;;;;;;;5.93;1.85;;;12.30;85.10;;;;;;5019902;28;20037;-72
2021/10/16 07:40:48;;;;;;;2.35;1.08;;;12.30;85.20;;;;;;5018716;28;20103;-72
2021/10/16 07:43:14;;;;;;;2.85;0.80;;;12.30;85.10;;;;;;5021799;28;20025;-72
2021/10/16 07:45:40;;;;;;;7.32;1.63;;;12.30;85.20;;;;;;5021220;28;20040;-73
2021/10/16 07:48:06;;;;;;;6.15;1.70;;;12.30;85.20;;;;;;5018876;28;20033;-73
2021/10/16 07:50:31;;;;;;;3.90;1.25;;;12.30;85.40;;;;;;5021098;28;20111;-73
2021/10/16 07:52:57;;;;;;;5.05;1.27;;;12.30;85.40;;;;;;5021622;28;20021;-74
2021/10/16 07:55:23;;;;;;;4.53;1.63;;;12.30;85.40;;;;;;5020573;28;20469;-74
2021/10/16 07:57:48;;;;;;;3.40;1.45;;;12.30;85.50;;;;;;5020331;28;20046;-72
2021/10/16 08:00:15;;;;;;;4.82;1.15;;;12.40;85.50;;;;;;5022482;28;20018;-73
2021/10/16 08:02:41;;;;;;;5.55;1.65;;;12.30;85.50;;;;;;5022297;28;20073;-72
2021/10/16 08:05:07;;;;;;;8.95;1.50;;;12.40;85.50;;;;;;5021612;28;20057;-73
2021/10/16 08:07:32;;;;;;;4.15;1.80;;;12.40;85.40;;;;;;5022184;28;20033;-73
2021/10/16 08:09:59;;;;;;;2.17;0.93;;;12.50;85.50;;;;;;5015363;28;20026;-73
2021/10/16 08:12:25;;;;;;;5.85;1.50;;;12.40;85.40;;;;;;5015421;28;20037;-73
2021/10/16 08:14:50;;;;;;;1.27;0.63;;;12.40;85.40;;;;;;5019764;28;20069;-72
2021/10/16 08:17:16;;;;;;;5.93;1.30;;;12.40;85.40;;;;;;5022851;28;20374;-73
2021/10/16 08:19:42;;;;;;;8.18;1.52;;;12.40;85.40;;;;;;5022174;28;20040;-73
2021/10/16 08:22:10;;;;;;;5.82;1.30;;;12.40;85.50;;;;;;5016892;28;20029;-73
2021/10/16 08:24:38;;;;;;;7.93;1.77;;;12.40;85.60;;;;;;5023243;28;20052;-73
2021/10/16 08:27:04;;;;;;;6.38;1.85;;;12.40;85.60;;;;;;5020618;28;20056;-73
2021/10/16 08:29:30;;;;;;;5.95;1.80;;;12.40;85.80;;;;;;5016250;28;20033;-71
2021/10/16 08:31:55;;;;;;;0.80;0.52;;;12.40;85.80;;;;;;5018063;28;20034;-70
2021/10/16 08:34:21;;;;;;;3.28;1.17;;;12.50;85.70;;;;;;5016500;28;20291;-70
2021/10/16 08:36:47;;;;;;;8.35;1.58;;;12.50;85.60;;;;;;5016311;28;20063;-74
2021/10/16 08:39:12;;;;;;;4.22;1.42;;;12.40;85.60;;;;;;5012958;28;20076;-72
2021/10/16 08:41:41;;;;;;;5.03;1.90;;;12.50;85.60;;;;;;5013936;28;20026;-72
2021/10/16 08:44:08;;;;;;;3.20;1.70;;;12.40;85.70;;;;;;5026003;28;20108;-69
2021/10/16 08:46:40;;;;;;;13.88;1.73;;;12.40;85.80;;;;;;5016017;28;20057;-76
2021/10/16 08:49:14;;;;;;;4.43;1.40;;;12.50;85.90;;;;;;5019804;28;20048;-75
2021/10/16 08:51:41;;;;;;;3.92;1.23;;;12.50;85.90;;;;;;5017936;28;20044;-78
2021/10/16 08:54:06;;;;;;;3.42;1.27;;;12.40;85.80;;;;;;5013552;28;20426;-73
2021/10/16 08:56:32;;;;;;;2.83;1.48;;;12.50;85.90;;;;;;5014585;28;20149;-74
2021/10/16 08:58:58;;;;;;;3.45;1.38;;;12.50;85.90;;;;;;5017166;28;20029;-73
2021/10/16 09:01:24;;;;;;;8.68;1.58;;;12.50;86.00;;;;;;5015805;28;20018;-72
2021/10/16 09:03:51;;;;;;;5.53;1.58;;;12.50;86.50;;;;;;5017259;28;20052;-73
2021/10/16 09:06:27;;;;;;;3.85;1.70;;;12.60;86.00;;;;;;5014647;28;20040;-73
2021/10/16 09:09:12;;;;;;;4.93;1.35;;;12.60;86.00;;;;;;5021330;28;20057;-73
2021/10/16 09:11:38;;;;;;;0.55;0.47;;;12.60;86.00;;;;;;5014875;28;20543;-72
2021/10/16 09:14:08;;;;;;;3.38;0.73;;;12.60;85.80;;;;;;5012066;28;20033;-72
2021/10/16 09:16:42;;;;;;;2.10;1.20;;;12.60;85.80;;;;;;5016785;28;20061;-72
2021/10/16 09:19:10;;;;;;;;;;;12.60;86.00;;;;;;5020852;28;20029;-73
2021/10/16 09:21:38;;;;;;;3.78;1.15;;;12.60;85.90;;;;;;5023743;28;19917;-73
2021/10/16 09:24:17;;;;;;;5.85;2.10;;;12.60;86.00;;;;;;5014541;28;20124;-72
2021/10/16 09:26:47;;;;;;;6.40;1.75;;;12.60;86.30;;;;;;5029523;28;20076;-74
2021/10/16 09:29:15;;;;;;;4.38;1.77;;;12.60;86.30;;;;;;5025390;28;20489;-74
2021/10/16 09:31:52;;;;;;;6.13;1.38;;;12.60;86.30;;;;;;5026939;28;20432;-77
2021/10/16 09:34:23;;;;;;;1.10;0.77;;;12.70;86.40;;;;;;5019442;28;20037;-76
2021/10/16 09:36:49;;;;;;;1.85;0.73;;;12.60;86.30;;;;;;5018243;28;20497;-76
2021/10/16 09:39:17;;;;;;;4.65;1.30;;;12.60;86.30;;;;;;5025364;28;20028;-76
2021/10/16 09:41:43;;;;;;;0.28;0.28;;;12.60;86.40;;;;;;5022689;28;20052;-73
2021/10/16 09:44:21;;;;;;;5.35;1.27;;;12.60;86.40;;;;;;5014971;28;20562;-72
2021/10/16 09:47:05;;;;;;;1.45;0.50;;;12.60;86.50;;;;;;5019408;28;20060;-72
2021/10/16 09:49:49;;;;;;;0.75;0.52;;;12.60;86.50;;;;;;5029501;28;20029;-72
2021/10/16 09:52:17;;;;;;;1.48;1.08;;;12.60;86.40;;;;;;5027217;28;20041;-71
2021/10/16 09:54:45;;;;;;;0.63;0.40;;;12.60;86.40;;;;;;5027850;28;20477;-71
2021/10/16 09:57:14;;;;;;;0.80;0.70;;;12.70;86.50;;;;;;5024368;28;20047;-72
2021/10/16 09:59:41;;;;;;;0.32;0.32;;;12.70;86.40;;;;;;5029177;28;20488;-72
2021/10/16 10:02:08;;;;;;;6.38;1.45;;;12.70;86.40;;;;;;5028864;28;20485;-71
2021/10/16 10:04:39;;;;;;;3.60;1.40;;;12.70;86.40;;;;;;5027974;28;20038;-71
2021/10/16 10:07:06;;;;;;;3.63;1.17;;;12.70;86.30;;;;;;5020369;28;20030;-72
2021/10/16 10:09:33;;;;;;;2.65;0.85;;;12.80;86.30;;;;;;5028278;28;20475;-72
2021/10/16 10:12:00;;;;;;;4.85;1.38;;;12.70;86.30;;;;;;5023246;28;20037;-72
2021/10/16 10:14:26;;;;;;;4.55;1.60;;;12.80;86.40;;;;;;5018049;28;20472;-72
2021/10/16 10:16:54;;;;;;;2.70;0.90;;;12.70;86.40;;;;;;5020389;28;20041;-71
2021/10/16 10:19:22;;;;;;;0.73;0.63;;;12.80;86.50;;;;;;5017556;28;20121;-72
2021/10/16 10:21:48;;;;;;;2.63;1.10;;;12.80;86.50;;;;;;5017698;28;20104;-72
2021/10/16 10:24:14;;;;;;;1.88;0.93;;;12.80;86.40;;;;;;5017066;28;20499;-73
2021/10/16 10:26:42;;;;;;;9.75;1.88;;;12.90;86.50;;;;;;5019450;28;20033;-72
2021/10/16 10:29:11;;;;;;;8.73;1.45;;;12.90;86.30;;;;;;5014871;28;20084;-72
2021/10/16 10:31:45;;;;;;;2.65;1.10;;;13.00;86.30;;;;;;5022881;28;20544;-73
2021/10/16 10:34:17;;;;;;;5.05;0.73;;;13.00;86.30;;;;;;5020435;28;20033;-72
2021/10/16 10:37:12;;;;;;;7.18;1.85;;;13.00;86.20;;;;;;5021925;28;20059;-72
2021/10/16 10:39:50;;;;;;;4.32;1.23;;;13.00;86.00;;;;;;5022938;28;20447;-72
2021/10/16 10:42:15;;;;;;;0.95;0.70;;;13.10;86.00;;;;;;5019952;28;20101;-71
2021/10/16 10:44:49;;;;;;;4.68;1.58;;;13.10;86.60;;;;;;5014407;28;20153;-72
2021/10/16 10:47:34;;;;;;;9.23;2.00;;;13.10;85.80;;;;;;5020639;28;20052;-78
2021/10/16 10:50:09;;;;;;;3.72;1.50;;;13.10;85.80;;;;;;5022660;28;20065;-72
2021/10/16 10:53:23;;;;;;;2.85;1.17;;;13.10;85.70;;;;;;5022389;28;20041;-72
2021/10/16 10:55:57;;;;;;;3.05;1.25;;;13.20;85.80;;;;;;5026086;28;20052;-72
2021/10/16 10:58:49;;;;;;;2.55;1.17;;;13.20;85.70;;;;;;5031249;28;20136;-72
2021/10/16 11:01:50;;;;;;;1.42;0.63;;;13.20;85.70;;;;;;5019041;28;20061;-71
2021/10/16 11:04:30;;;;;;;4.68;1.20;;;13.20;85.70;;;;;;5025490;28;20038;-74
2021/10/16 11:06:59;;;;;;;7.68;1.40;;;13.30;85.70;;;;;;5013760;28;20030;-72
2021/10/16 11:09:24;;;;;;;2.20;0.60;;;13.20;85.60;;;;;;5019022;28;20041;-72
2021/10/16 11:11:50;;;;;;;6.20;1.25;;;13.20;85.70;;;;;;5022388;28;20116;-72
2021/10/16 11:14:16;;;;;;;5.72;1.33;;;13.20;85.60;;;;;;5018090;28;20033;-72
2021/10/16 11:17:04;;;;;;;4.22;2.25;;;13.30;85.50;;;;;;5019416;28;20404;-72
2021/10/16 11:19:44;;;;;;;6.53;1.63;;;13.30;85.50;;;;;;5019336;28;20030;-72
2021/10/16 11:22:09;;;;;;;3.00;1.17;;;13.40;85.50;;;;;;5025856;28;20046;-72
2021/10/16 11:24:36;;;;;;;7.13;1.48;;;13.40;85.50;;;;;;5031459;28;20021;-73
2021/10/16 11:27:02;;;;;;;2.55;1.02;;;13.40;85.50;;;;;;5025412;28;20034;-73
2021/10/16 11:29:39;;;;;;;4.82;1.38;;;13.40;85.50;;;;;;5025698;28;20032;-73
2021/10/16 11:32:23;;;;;;;5.20;1.33;;;13.40;85.40;;;;;;5025480;28;20041;-73
2021/10/16 11:35:07;;;;;;;7.38;1.77;;;13.50;85.50;;;;;;5030431;28;20424;-71
2021/10/16 11:37:39;;;;;;;6.38;1.50;;;13.40;85.40;;;;;;5025994;28;20489;-73
2021/10/16 11:40:09;;;;;;;5.05;1.48;;;13.50;85.40;;;;;;5015436;28;20088;-73
2021/10/16 11:42:36;;;;;;;0.55;0.45;;;13.50;85.50;;;;;;5021893;28;20030;-72
2021/10/16 11:45:09;;;;;;;1.88;1.05;;;13.50;85.50;;;;;;5025156;28;20040;-73
2021/10/16 11:47:35;;;;;;;2.78;1.08;;;13.60;85.50;;;;;;5021046;28;20079;-73
2021/10/16 11:50:12;;;;;;;1.83;0.80;;;13.60;85.40;;;;;;5016423;28;20038;-73
2021/10/16 11:52:38;;;;;;;4.30;1.10;;;13.60;85.30;;;;;;5025964;28;20021;-73
2021/10/16 11:55:26;;;;;;;7.25;1.73;;;13.60;85.20;;;;;;5026316;28;20030;-73
2021/10/16 11:58:02;;;;;;;2.80;1.02;;;13.70;85.30;;;;;;5017060;28;20389;-73
2021/10/16 12:00:28;;;;;;;1.00;0.63;;;13.70;85.30;;;;;;5016680;28;20539;-72
2021/10/16 12:02:56;;;;;;;2.20;0.75;;;13.70;85.30;;;;;;5026135;28;20025;-73
2021/10/16 12:05:24;;;;;;;2.65;0.82;;;13.70;85.20;;;;;;5019309;28;20026;-73
2021/10/16 12:07:50;;;;;;;2.50;1.00;;;13.70;85.10;;;;;;5018505;28;20487;-73
2021/10/16 12:10:28;;;;;;;3.53;1.85;;;13.70;85.10;;;;;;5029352;28;20397;-73
2021/10/16 12:12:58;;;;;;;4.40;1.38;;;13.80;85.30;;;;;;5030939;28;20123;-73
2021/10/16 12:15:34;;;;;;;2.40;1.35;;;13.80;84.90;;;;;;5018738;28;20061;-73
2021/10/16 12:18:00;;;;;;;6.75;1.30;;;13.80;84.90;;;;;;5030863;28;20057;-73
2021/10/16 12:20:26;;;;;;;10.18;1.65;;;13.80;85.00;;;;;;5029853;28;20028;-73
2021/10/16 12:22:57;;;;;;;4.65;1.30;;;13.80;84.90;;;;;;5021234;28;20492;-73
2021/10/16 12:25:22;;;;;;;6.38;1.80;;;13.80;84.90;;;;;;5021306;28;20068;-73
2021/10/16 12:28:01;;;;;;;2.90;1.13;;;13.90;85.00;;;;;;5018095;28;20034;-73
2021/10/16 12:30:28;;;;;;;4.45;1.10;;;13.90;85.00;;;;;;5013824;28;20025;-73
2021/10/16 12:33:04;;;;;;;2.03;0.57;;;13.90;85.10;;;;;;5020865;28;20032;-74
2021/10/16 12:35:31;;;;;;;7.75;1.75;;;14.00;85.20;;;;;;5016748;28;20045;-72
2021/10/16 12:37:58;;;;;;;11.82;2.28;;;14.00;85.00;;;;;;5015642;28;20033;-73
2021/10/16 12:40:41;;;;;;;6.47;1.60;;;14.00;84.70;;;;;;5018831;28;20026;-72
2021/10/16 12:43:21;;;;;;;4.95;1.20;;;14.00;84.60;;;;;;5015291;28;20029;-72
2021/10/16 12:45:47;;;;;;;9.60;2.78;;;14.10;84.70;;;;;;5022911;28;20037;-72
2021/10/16 12:48:44;;;;;;;1.80;1.23;;;14.20;84.50;;;;;;5021939;28;20044;-72
2021/10/16 12:51:10;;;;;;;3.30;1.10;;;14.20;84.70;;;;;;5025902;28;20030;-77
2021/10/16 12:53:52;;;;;;;0.88;0.85;;;14.10;84.60;;;;;;5026699;28;20025;-77